createdAt,value
2018-11-12T00:00:19.466Z,3.90
2018-11-12T00:02:57.070Z,6.13
2018-11-12T00:05:29.743Z,3.83
2018-11-12T00:08:01.852Z,4.37
2018-11-12T00:10:35.132Z,5.30
2018-11-12T00:13:06.793Z,4.23
2018-11-12T00:15:39.951Z,4.80
2018-11-12T00:18:12.477Z,4.63
2018-11-12T00:20:44.635Z,3.80
2018-11-12T00:23:16.359Z,3.73
2018-11-12T00:25:48.252Z,4.77
2018-11-12T00:28:20.293Z,4.63
2018-11-12T00:30:53.565Z,4.20
2018-11-12T00:33:25.541Z,3.43
2018-11-12T00:35:57.143Z,5.60
2018-11-12T00:38:28.989Z,4.77
2018-11-12T00:41:01.163Z,5.73
2018-11-12T00:43:32.898Z,5.57
2018-11-12T00:46:15.709Z,3.70
2018-11-12T00:48:47.996Z,4.40
2018-11-12T00:51:19.721Z,3.40
2018-11-12T00:53:52.398Z,5.00
2018-11-12T00:56:24.100Z,5.57
2018-11-12T00:58:56.806Z,4.97
2018-11-12T01:01:28.831Z,5.07
2018-11-12T01:04:00.455Z,3.70
2018-11-12T01:06:32.345Z,4.03
2018-11-12T01:09:05.634Z,3.23
2018-11-12T01:11:37.686Z,4.17
2018-11-12T01:14:10.227Z,4.87
2018-11-12T01:16:42.088Z,3.20
2018-11-12T01:19:14.288Z,3.10
2018-11-12T01:21:46.197Z,3.80
2018-11-12T01:24:18.093Z,4.17
2018-11-12T01:26:50.820Z,3.23
2018-11-12T01:29:22.885Z,2.77
2018-11-12T01:31:56.065Z,3.50
2018-11-12T01:34:27.230Z,4.50
2018-11-12T01:36:59.194Z,4.13
2018-11-12T01:39:32.920Z,4.07
2018-11-12T01:42:05.337Z,2.67
2018-11-12T01:44:36.964Z,2.40
2018-11-12T01:47:09.276Z,3.50
2018-11-12T01:49:41.451Z,3.80
2018-11-12T01:52:14.197Z,5.53
2018-11-12T01:54:46.434Z,4.00
2018-11-12T01:57:18.467Z,3.33
2018-11-12T01:59:50.540Z,3.13
2018-11-12T02:02:22.525Z,2.87
2018-11-12T02:04:54.532Z,4.50
2018-11-12T02:07:27.161Z,3.93
2018-11-12T02:09:59.743Z,3.60
2018-11-12T02:12:31.644Z,3.53
2018-11-12T02:15:04.106Z,2.87
2018-11-12T02:17:36.184Z,3.10
2018-11-12T02:23:08.628Z,3.50
2018-11-12T02:25:40.655Z,3.50
2018-11-12T02:28:12.681Z,2.20
2018-11-12T02:30:49.084Z,3.77
2018-11-12T02:33:20.902Z,3.03
2018-11-12T02:35:52.877Z,2.10
2018-11-12T02:38:25.085Z,1.33
2018-11-12T02:40:57.708Z,1.60
2018-11-12T02:43:30.336Z,2.13
2018-11-12T02:46:04.799Z,2.80
2018-11-12T02:48:36.452Z,2.30
2018-11-12T02:51:08.773Z,2.33
2018-11-12T02:53:41.030Z,1.70
2018-11-12T02:56:13.382Z,3.47
2018-11-12T02:58:45.428Z,2.80
2018-11-12T03:01:22.029Z,4.17
2018-11-12T03:03:54.702Z,2.23
2018-11-12T03:06:27.994Z,2.60
2018-11-12T03:09:02.548Z,3.07
2018-11-12T03:11:35.591Z,4.93
2018-11-12T03:14:07.803Z,2.63
2018-11-12T03:16:40.418Z,5.30
2018-11-12T03:19:13.713Z,3.30
2018-11-12T03:21:45.369Z,2.40
2018-11-12T03:24:17.134Z,3.27
2018-11-12T03:26:49.710Z,3.73
2018-11-12T03:29:21.607Z,7.43
2018-11-12T03:31:54.322Z,4.37
2018-11-12T03:34:26.504Z,4.90
2018-11-12T03:36:58.468Z,3.27
2018-11-12T03:39:30.633Z,3.83
2018-11-12T03:42:03.048Z,3.10
2018-11-12T03:44:36.039Z,3.50
2018-11-12T03:47:08.563Z,3.67
2018-11-12T03:49:40.443Z,3.50
2018-11-12T03:52:12.192Z,4.20
2018-11-12T03:54:45.242Z,5.30
2018-11-12T03:57:17.051Z,4.77
2018-11-12T03:59:48.757Z,2.90
2018-11-12T04:02:21.993Z,3.90
2018-11-12T04:04:53.844Z,2.17
2018-11-12T04:07:25.906Z,4.73
2018-11-12T04:09:57.921Z,4.80
2018-11-12T04:12:29.451Z,3.27
2018-11-12T04:15:01.556Z,5.77
2018-11-12T04:17:34.069Z,3.60
2018-11-12T04:20:06.326Z,6.10
2018-11-12T04:22:39.644Z,3.53
2018-11-12T04:25:12.310Z,4.90
2018-11-12T04:27:47.941Z,2.87
2018-11-12T04:30:20.251Z,3.00
2018-11-12T04:32:52.508Z,4.37
2018-11-12T04:35:24.600Z,4.47
2018-11-12T04:38:03.105Z,3.63
2018-11-12T04:40:34.985Z,4.70
2018-11-12T04:43:07.437Z,3.67
2018-11-12T04:45:39.908Z,4.93
2018-11-12T04:48:12.363Z,3.63
2018-11-12T04:50:44.381Z,3.93
2018-11-12T04:53:16.073Z,7.07
2018-11-12T04:55:48.239Z,2.57
2018-11-12T04:58:20.840Z,6.20
2018-11-12T05:00:53.611Z,4.13
2018-11-12T05:03:28.794Z,4.83
2018-11-12T05:06:00.665Z,5.03
2018-11-12T05:08:32.375Z,3.90
2018-11-12T05:11:04.049Z,3.67
2018-11-12T05:13:35.598Z,2.87
2018-11-12T05:16:07.865Z,4.90
2018-11-12T05:18:39.604Z,3.10
2018-11-12T05:21:12.145Z,1.50
2018-11-12T05:23:44.267Z,2.23
2018-11-12T05:26:16.101Z,3.60
2018-11-12T05:28:47.668Z,5.73
2018-11-12T05:31:19.184Z,6.87
2018-11-12T05:33:51.038Z,2.40
2018-11-12T05:36:23.026Z,6.17
2018-11-12T05:38:55.034Z,2.97
2018-11-12T05:41:27.607Z,2.33
2018-11-12T05:43:59.870Z,2.30
2018-11-12T05:46:31.289Z,2.13
2018-11-12T05:49:03.016Z,2.17
2018-11-12T05:51:35.546Z,2.63
2018-11-12T05:54:06.863Z,2.97
2018-11-12T05:56:38.823Z,2.07
2018-11-12T05:59:11.777Z,4.87
2018-11-12T06:01:43.281Z,4.47
2018-11-12T06:04:15.383Z,3.83
2018-11-12T06:06:47.775Z,2.13
2018-11-12T06:09:19.949Z,4.20
2018-11-12T06:11:51.594Z,1.47
2018-11-12T06:14:23.640Z,2.60
2018-11-12T06:16:55.229Z,3.87
2018-11-12T06:19:27.679Z,5.63
2018-11-12T06:21:59.309Z,2.70
2018-11-12T06:24:31.088Z,2.57
2018-11-12T06:27:03.557Z,4.03
2018-11-12T06:29:35.282Z,2.90
2018-11-12T06:32:07.732Z,2.93
2018-11-12T06:34:38.950Z,3.03
2018-11-12T06:37:10.294Z,3.23
2018-11-12T06:39:41.687Z,2.37
2018-11-12T06:42:19.367Z,3.00
2018-11-12T06:44:50.728Z,2.63
2018-11-12T06:47:24.185Z,3.40
2018-11-12T06:49:55.603Z,2.07
2018-11-12T06:52:27.084Z,3.47
2018-11-12T06:55:00.549Z,3.63
2018-11-12T06:57:31.959Z,5.67
2018-11-12T07:00:03.677Z,4.37
2018-11-12T07:02:38.235Z,3.73
2018-11-12T07:05:10.218Z,3.50
2018-11-12T07:07:41.355Z,2.60
2018-11-12T07:10:20.244Z,3.80
2018-11-12T07:13:08.695Z,3.90
2018-11-12T07:18:32.208Z,3.80
2018-11-12T07:21:03.552Z,7.20
2018-11-12T07:23:35.048Z,5.07
2018-11-12T07:26:06.148Z,2.13
2018-11-12T07:28:39.037Z,5.80
2018-11-12T07:31:10.174Z,3.53
2018-11-12T07:33:41.629Z,9.70
2018-11-12T07:36:12.871Z,5.03
2018-11-12T07:38:44.399Z,3.80
2018-11-12T07:41:16.507Z,4.10
2018-11-12T07:43:47.930Z,2.80
2018-11-12T07:46:19.918Z,4.90
2018-11-12T07:48:51.136Z,6.47
2018-11-12T07:51:22.291Z,8.80
2018-11-12T07:53:58.783Z,7.80
2018-11-12T07:56:30.743Z,7.60
2018-11-12T07:59:01.758Z,10.10
2018-11-12T08:01:32.821Z,9.23
2018-11-12T08:04:04.355Z,10.23
2018-11-12T08:06:35.554Z,11.10
2018-11-12T08:09:08.424Z,11.23
2018-11-12T08:11:39.370Z,10.40
2018-11-12T08:14:10.599Z,12.23
2018-11-12T08:16:41.973Z,7.70
2018-11-12T08:19:13.898Z,6.97
2018-11-12T08:21:45.008Z,8.67
2018-11-12T08:24:16.777Z,7.60
2018-11-12T08:26:47.776Z,8.50
2018-11-12T08:29:19.206Z,10.97
2018-11-12T08:31:51.175Z,6.00
2018-11-12T08:34:22.832Z,5.43
2018-11-12T08:36:53.966Z,9.70
2018-11-12T08:39:25.563Z,5.63
2018-11-12T08:41:56.521Z,5.20
2018-11-12T08:44:27.313Z,4.77
2018-11-12T08:46:58.555Z,7.67
2018-11-12T08:49:29.675Z,7.47
2018-11-12T08:52:00.657Z,5.50
2018-11-12T08:54:32.896Z,3.27
2018-11-12T08:57:03.962Z,5.03
2018-11-12T08:59:35.305Z,4.40
2018-11-12T09:02:06.758Z,4.53
2018-11-12T09:04:37.786Z,3.20
2018-11-12T09:07:09.257Z,4.90
2018-11-12T09:09:40.397Z,6.83
2018-11-12T09:12:22.626Z,3.40
2018-11-12T09:14:54.300Z,6.13
2018-11-12T09:17:28.993Z,5.80
2018-11-12T09:20:04.287Z,4.67
2018-11-12T09:22:35.654Z,4.93
2018-11-12T09:25:08.290Z,4.07
2018-11-12T09:27:39.472Z,3.97
2018-11-12T09:30:12.889Z,3.60
2018-11-12T09:32:44.968Z,4.97
2018-11-12T09:35:17.570Z,5.00
2018-11-12T09:37:50.033Z,4.57
2018-11-12T09:40:26.804Z,4.67
2018-11-12T09:42:57.946Z,3.50
2018-11-12T09:45:29.692Z,3.40
2018-11-12T09:48:04.454Z,7.00
2018-11-12T09:50:35.582Z,6.97
2018-11-12T09:53:07.000Z,6.33
2018-11-12T09:55:38.507Z,4.87
2018-11-12T09:58:10.378Z,6.30
2018-11-12T10:00:42.569Z,7.37
2018-11-12T10:03:15.188Z,4.73
2018-11-12T10:05:46.823Z,7.67
2018-11-12T10:08:18.328Z,7.37
2018-11-12T10:10:54.198Z,8.53
2018-11-12T10:13:27.083Z,5.00
2018-11-12T10:15:58.852Z,8.33
2018-11-12T10:18:27.298Z,7.50
2018-11-12T10:20:58.773Z,6.40
2018-11-12T10:23:31.275Z,7.97
2018-11-12T10:26:03.045Z,8.47
2018-11-12T10:28:34.906Z,5.43
2018-11-12T10:31:06.582Z,10.40
2018-11-12T10:33:37.744Z,8.97
2018-11-12T10:36:09.887Z,5.97
2018-11-12T10:38:41.599Z,5.70
2018-11-12T10:41:13.387Z,7.53
2018-11-12T10:43:45.251Z,6.33
2018-11-12T10:46:16.593Z,10.40
2018-11-12T10:48:48.199Z,8.23
2018-11-12T10:51:19.155Z,10.57
2018-11-12T10:53:53.663Z,6.57
2018-11-12T10:56:25.396Z,6.03
2018-11-12T10:59:02.090Z,8.50
2018-11-12T11:02:36.811Z,7.50
2018-11-12T11:05:08.358Z,7.47
2018-11-12T11:07:40.709Z,9.30
2018-11-12T11:10:12.172Z,9.57
2018-11-12T11:12:44.613Z,9.47
2018-11-12T11:15:17.125Z,7.67
2018-11-12T11:17:48.693Z,10.80
2018-11-12T11:20:20.401Z,9.20
2018-11-12T11:22:52.027Z,8.73
2018-11-12T11:25:23.743Z,11.50
2018-11-12T11:27:55.101Z,8.30
2018-11-12T11:30:27.057Z,8.80
2018-11-12T11:32:58.932Z,11.87
2018-11-12T11:35:30.220Z,7.30
2018-11-12T11:38:01.309Z,8.23
2018-11-12T11:40:32.226Z,10.77
2018-11-12T11:43:03.446Z,11.97
2018-11-12T11:45:34.744Z,10.07
2018-11-12T11:48:05.522Z,11.13
2018-11-12T11:50:37.226Z,8.70
2018-11-12T11:53:08.417Z,13.50
2018-11-12T11:55:39.595Z,9.97
2018-11-12T11:58:10.599Z,11.57
2018-11-12T12:00:42.054Z,11.67
2018-11-12T12:03:13.022Z,12.57
2018-11-12T12:05:43.943Z,11.93
2018-11-12T12:08:14.531Z,10.73
2018-11-12T12:10:45.718Z,11.57
2018-11-12T12:13:17.879Z,10.30
2018-11-12T12:15:49.241Z,16.00
2018-11-12T12:18:20.039Z,20.30
2018-11-12T12:20:51.087Z,12.87
2018-11-12T12:23:22.478Z,14.50
2018-11-12T12:25:53.344Z,13.67
2018-11-12T12:28:24.253Z,12.53
2018-11-12T12:30:54.653Z,16.57
2018-11-12T12:33:26.027Z,11.40
2018-11-12T12:35:57.250Z,12.07
2018-11-12T12:38:28.882Z,15.23
2018-11-12T12:41:00.050Z,14.90
2018-11-12T12:43:31.597Z,15.17
2018-11-12T12:46:03.388Z,14.40
2018-11-12T12:48:35.092Z,13.33
2018-11-12T12:51:06.857Z,14.13
2018-11-12T12:53:39.199Z,16.97
2018-11-12T12:56:10.878Z,12.77
2018-11-12T12:58:42.002Z,12.20
2018-11-12T13:01:13.729Z,12.77
2018-11-12T13:03:44.601Z,11.53
2018-11-12T13:06:15.969Z,17.67
2018-11-12T13:08:48.227Z,17.47
2018-11-12T13:11:19.738Z,20.80
2018-11-12T13:13:51.010Z,18.67
2018-11-12T13:16:22.249Z,22.90
2018-11-12T13:18:53.555Z,20.07
2018-11-12T13:21:26.273Z,23.17
2018-11-12T13:23:57.204Z,28.17
2018-11-12T13:26:28.558Z,28.90
2018-11-12T13:28:59.916Z,32.83
2018-11-12T13:31:31.322Z,35.23
2018-11-12T13:34:02.276Z,32.90
2018-11-12T13:36:33.413Z,33.47
2018-11-12T13:39:06.011Z,37.67
2018-11-12T13:41:38.197Z,34.90
2018-11-12T13:44:09.566Z,30.77
2018-11-12T13:46:48.975Z,29.13
2018-11-12T13:49:20.963Z,32.50
2018-11-12T13:51:52.946Z,29.97
2018-11-12T13:54:24.408Z,27.73
2018-11-12T13:56:55.598Z,25.20
2018-11-12T13:59:26.550Z,25.47
2018-11-12T14:01:57.721Z,23.73
2018-11-12T14:04:34.373Z,20.97
2018-11-12T14:07:06.096Z,22.83
2018-11-12T14:09:38.655Z,26.03
2018-11-12T14:12:10.230Z,22.53
2018-11-12T14:14:41.606Z,19.37
2018-11-12T14:17:13.344Z,18.50
2018-11-12T14:19:44.888Z,17.67
2018-11-12T14:22:19.053Z,18.63
2018-11-12T14:24:50.891Z,18.37
2018-11-12T14:27:23.491Z,22.83
2018-11-12T14:30:02.569Z,18.87
2018-11-12T14:32:36.701Z,20.73
2018-11-12T14:35:12.452Z,23.13
2018-11-12T14:37:46.070Z,18.60
2018-11-12T14:40:18.409Z,12.03
2018-11-12T14:42:49.985Z,10.40
2018-11-12T14:45:22.096Z,9.27
2018-11-12T14:47:54.370Z,9.27
2018-11-12T14:50:25.848Z,9.87
2018-11-12T14:52:57.941Z,10.47
2018-11-12T14:55:30.152Z,7.83
2018-11-12T14:58:02.707Z,9.27
2018-11-12T15:00:34.465Z,7.93
2018-11-12T15:03:06.186Z,11.07
2018-11-12T15:05:36.990Z,6.50
2018-11-12T15:08:08.585Z,6.20
2018-11-12T15:10:39.055Z,6.77
2018-11-12T15:13:09.791Z,5.43
2018-11-12T15:15:40.900Z,6.50
2018-11-12T15:18:11.424Z,5.30
2018-11-12T15:20:43.022Z,6.93
2018-11-12T15:23:13.422Z,7.30
2018-11-12T15:25:43.564Z,6.30
2018-11-12T15:28:13.685Z,6.97
2018-11-12T15:30:43.918Z,5.40
2018-11-12T15:33:14.726Z,6.80
2018-11-12T15:35:45.160Z,6.80
2018-11-12T15:38:18.712Z,6.73
2018-11-12T15:40:48.858Z,7.13
2018-11-12T15:43:19.234Z,5.80
2018-11-12T15:45:57.605Z,8.63
2018-11-12T15:48:28.070Z,7.07
2018-11-12T15:50:59.953Z,6.87
2018-11-12T15:53:30.252Z,7.77
2018-11-12T15:56:00.872Z,7.30
2018-11-12T15:58:31.486Z,7.77
2018-11-12T16:01:07.081Z,9.73
2018-11-12T16:03:37.959Z,14.87
2018-11-12T16:06:08.440Z,9.17
2018-11-12T16:08:39.263Z,8.70
2018-11-12T16:11:10.087Z,10.60
2018-11-12T16:13:40.981Z,10.17
2018-11-12T16:16:11.770Z,10.90
2018-11-12T16:18:41.987Z,12.53
2018-11-12T16:21:12.685Z,11.47
2018-11-12T16:23:43.300Z,12.07
2018-11-12T16:26:14.987Z,13.63
2018-11-12T16:28:46.998Z,11.27
2018-11-12T16:31:18.162Z,11.13
2018-11-12T16:33:49.943Z,11.17
2018-11-12T16:36:21.265Z,11.90
2018-11-12T16:38:52.709Z,12.40
2018-11-12T16:41:24.401Z,13.47
2018-11-12T16:44:01.481Z,13.80
2018-11-12T16:46:33.357Z,13.77
2018-11-12T16:49:04.699Z,13.83
2018-11-12T16:51:36.493Z,13.50
2018-11-12T16:54:08.065Z,13.97
2018-11-12T16:56:39.314Z,14.17
2018-11-12T16:59:11.226Z,15.03
2018-11-12T17:01:42.369Z,14.80
2018-11-12T17:04:14.249Z,14.53
2018-11-12T17:06:45.298Z,13.57
2018-11-12T17:09:16.948Z,15.27
2018-11-12T17:11:48.571Z,16.47
2018-11-12T17:14:19.966Z,16.17
2018-11-12T17:16:50.529Z,15.50
2018-11-12T17:19:21.869Z,15.53
2018-11-12T17:21:53.031Z,15.07
2018-11-12T17:24:26.580Z,15.57
2018-11-12T17:26:59.276Z,17.33
2018-11-12T17:29:31.169Z,15.83
2018-11-12T17:32:03.196Z,16.67
2018-11-12T17:34:35.758Z,20.43
2018-11-12T17:37:08.743Z,19.73
2018-11-12T17:39:40.925Z,19.53
2018-11-12T17:42:12.191Z,16.77
2018-11-12T17:44:44.730Z,18.57
2018-11-12T17:47:16.851Z,18.03
2018-11-12T17:49:48.408Z,21.23
2018-11-12T17:52:21.177Z,20.97
2018-11-12T17:54:52.486Z,22.77
2018-11-12T17:57:24.751Z,21.80
2018-11-12T17:59:55.965Z,22.93
2018-11-12T18:02:27.581Z,24.27
2018-11-12T18:04:59.460Z,26.77
2018-11-12T18:07:31.968Z,28.87
2018-11-12T18:10:04.962Z,25.97
2018-11-12T18:12:36.919Z,28.33
2018-11-12T18:15:13.163Z,29.10
2018-11-12T18:17:44.694Z,29.97
2018-11-12T18:20:22.900Z,36.67
2018-11-12T18:22:55.786Z,38.90
2018-11-12T18:25:27.475Z,36.77
2018-11-12T18:27:59.626Z,37.20
2018-11-12T18:30:32.840Z,33.97
2018-11-12T18:33:04.601Z,39.37
2018-11-12T18:35:36.632Z,35.40
2018-11-12T18:39:12.306Z,34.60
2018-11-12T18:41:44.420Z,33.10
2018-11-12T18:44:16.864Z,39.17
2018-11-12T18:46:48.667Z,38.03
2018-11-12T18:49:20.387Z,40.80
2018-11-12T18:51:52.310Z,38.17
2018-11-12T18:54:23.320Z,42.50
2018-11-12T18:56:55.563Z,41.83
2018-11-12T18:59:26.213Z,36.77
2018-11-12T19:01:56.842Z,37.10
2018-11-12T19:04:27.436Z,32.50
2018-11-12T19:07:00.416Z,35.20
2018-11-12T19:09:31.355Z,34.03
2018-11-12T19:12:02.274Z,35.83
2018-11-12T19:14:33.508Z,34.83
2018-11-12T19:17:04.725Z,32.03
2018-11-12T19:19:35.853Z,34.70
2018-11-12T19:22:08.090Z,32.83
2018-11-12T19:24:38.980Z,31.07
2018-11-12T19:27:10.269Z,33.00
2018-11-12T19:29:41.882Z,34.43
2018-11-12T19:32:12.533Z,31.07
2018-11-12T19:34:43.919Z,32.63
2018-11-12T19:37:14.581Z,40.13
2018-11-12T19:39:45.147Z,37.23
2018-11-12T19:42:15.717Z,33.93
2018-11-12T19:44:47.021Z,33.50
2018-11-12T19:47:20.088Z,34.67
2018-11-12T19:49:50.735Z,31.90
2018-11-12T19:52:21.835Z,33.37
2018-11-12T19:54:52.407Z,31.90
2018-11-12T19:57:23.151Z,32.43
2018-11-12T19:59:55.422Z,30.93
2018-11-12T20:02:27.104Z,33.17
2018-11-12T20:04:58.807Z,32.87
2018-11-12T20:07:30.465Z,31.67
2018-11-12T20:10:02.438Z,30.70
2018-11-12T20:12:34.390Z,28.87
2018-11-12T20:15:06.688Z,34.27
2018-11-12T20:17:38.225Z,32.13
2018-11-12T20:20:14.250Z,34.00
2018-11-12T20:22:47.378Z,31.30
2018-11-12T20:25:20.550Z,31.53
2018-11-12T20:27:52.849Z,31.83
2018-11-12T20:30:29.694Z,32.10
2018-11-12T20:33:00.953Z,30.60
2018-11-12T20:35:32.552Z,33.83
2018-11-12T20:38:03.672Z,32.23
2018-11-12T20:40:35.098Z,31.33
2018-11-12T20:43:06.425Z,32.90
2018-11-12T20:45:37.910Z,33.47
2018-11-12T20:48:09.199Z,32.80
2018-11-12T20:50:40.354Z,32.87
2018-11-12T20:53:11.766Z,34.50
2018-11-12T20:55:43.149Z,33.23
2018-11-12T20:58:14.693Z,30.53
2018-11-12T21:00:45.633Z,34.47
2018-11-12T21:03:16.972Z,34.93
2018-11-12T21:05:48.513Z,38.50
2018-11-12T21:08:20.043Z,36.30
2018-11-12T21:10:51.276Z,35.97
2018-11-12T21:13:22.580Z,33.07
2018-11-12T21:15:54.318Z,34.43
2018-11-12T21:18:25.751Z,34.73
2018-11-12T21:20:56.937Z,36.70
2018-11-12T21:23:28.333Z,36.43
2018-11-12T21:25:59.966Z,39.53
2018-11-12T21:28:31.287Z,37.37
2018-11-12T21:31:03.046Z,40.13
2018-11-12T21:33:34.888Z,40.23
2018-11-12T21:36:06.342Z,40.90
2018-11-12T21:38:39.362Z,39.40
2018-11-12T21:41:11.618Z,37.83
2018-11-12T21:43:43.917Z,39.70
2018-11-12T21:46:16.223Z,38.03
2018-11-12T21:48:48.261Z,37.83
2018-11-12T21:51:20.485Z,40.70
2018-11-12T21:53:52.772Z,36.80
2018-11-12T21:56:24.499Z,39.27
2018-11-12T21:59:07.288Z,38.07
2018-11-12T22:01:39.260Z,39.23
2018-11-12T22:04:10.693Z,42.67
2018-11-12T22:06:42.109Z,40.60
2018-11-12T22:09:13.225Z,39.10
2018-11-12T22:11:44.433Z,41.37
2018-11-12T22:14:16.135Z,38.10
2018-11-12T22:16:48.187Z,36.57
2018-11-12T22:19:21.558Z,37.30
2018-11-12T22:21:52.920Z,38.67
2018-11-12T22:24:25.124Z,41.97
2018-11-12T22:26:57.207Z,34.87
2018-11-12T22:29:29.302Z,40.87
2018-11-12T22:32:00.753Z,37.90
2018-11-12T22:34:31.594Z,34.23
2018-11-12T22:37:03.395Z,37.20
2018-11-12T22:39:36.860Z,37.60
2018-11-12T22:42:07.516Z,35.07
2018-11-12T22:44:39.082Z,39.67
2018-11-12T22:47:11.487Z,37.43
2018-11-12T22:49:46.273Z,37.20
2018-11-12T22:52:18.697Z,40.83
2018-11-12T22:54:51.078Z,41.13
2018-11-12T22:57:23.192Z,39.90
2018-11-12T22:59:55.238Z,35.63
2018-11-12T23:02:27.745Z,40.33
2018-11-12T23:05:00.535Z,38.90
2018-11-12T23:07:32.150Z,41.33
2018-11-12T23:10:04.927Z,36.07
2018-11-12T23:12:36.174Z,40.60
2018-11-12T23:15:08.643Z,39.17
2018-11-12T23:17:41.305Z,43.30
2018-11-12T23:20:18.162Z,45.10
2018-11-12T23:22:50.707Z,42.33
2018-11-12T23:25:22.602Z,50.47
2018-11-12T23:27:55.084Z,47.67
2018-11-12T23:30:27.393Z,48.57
2018-11-12T23:32:58.893Z,47.33
2018-11-12T23:35:32.141Z,47.13
2018-11-12T23:38:05.474Z,45.47
2018-11-12T23:40:36.892Z,44.83
2018-11-12T23:43:08.721Z,50.20
2018-11-12T23:45:39.954Z,42.77
2018-11-12T23:48:11.824Z,47.80
2018-11-12T23:50:43.145Z,51.77
2018-11-12T23:53:14.623Z,47.63
2018-11-12T23:55:46.517Z,50.97
2018-11-12T23:58:18.670Z,51.47
